Time;durP1;ratioP1;P1;durP2;ratioP2;P2;SDS_P1;SDS_P2;PMS_P1;PMS_P2;Temp;Humidity;BMP_temperature;BMP_pressure;BME280_temperature;BME280_humidity;BME280_pressure;Samples;Min_cycle;Max_cycle;Signal;HPM_P1;HPM_P2
2023/08/06 00:00:21;;;;;;;4.10;3.13;;;15.40;99.90;;;;;;5099380;28;20417;-66
2023/08/06 00:02:48;;;;;;;3.70;3.40;;;15.40;99.90;;;;;;5101607;28;20513;-66
2023/08/06 00:05:17;;;;;;;3.80;3.40;;;15.40;99.90;;;;;;5092210;28;20406;-68
2023/08/06 00:07:44;;;;;;;3.22;2.90;;;15.30;99.90;;;;;;5099321;28;20467;-66
2023/08/06 00:10:11;;;;;;;4.55;3.05;;;15.20;99.90;;;;;;5099771;28;20438;-67
2023/08/06 00:12:38;;;;;;;4.32;3.70;;;15.20;99.90;;;;;;5104226;28;20956;-66
2023/08/06 00:15:07;;;;;;;3.78;3.00;;;15.20;99.90;;;;;;5096617;28;20513;-65
2023/08/06 00:17:34;;;;;;;4.18;3.78;;;15.20;99.90;;;;;;5094135;28;20436;-66
2023/08/06 00:20:04;;;;;;;4.28;2.97;;;15.20;99.90;;;;;;5095766;28;20408;-65
2023/08/06 00:22:31;;;;;;;3.50;3.20;;;15.10;99.90;;;;;;5104532;28;20500;-66
2023/08/06 00:24:58;;;;;;;4.43;3.40;;;15.10;99.90;;;;;;5095152;28;20457;-66
2023/08/06 00:27:25;;;;;;;3.53;3.20;;;15.10;99.90;;;;;;5103142;28;20451;-66
2023/08/06 00:29:52;;;;;;;3.90;3.50;;;15.10;99.90;;;;;;5094161;28;20406;-65
2023/08/06 00:32:20;;;;;;;3.90;3.50;;;15.10;99.90;;;;;;5103053;28;20443;-67
2023/08/06 00:34:49;;;;;;;5.82;4.07;;;15.10;99.90;;;;;;5098251;28;20431;-68
2023/08/06 00:37:16;;;;;;;4.40;3.90;;;15.10;99.90;;;;;;5095854;28;20432;-67
2023/08/06 00:39:42;;;;;;;3.50;3.20;;;15.00;99.90;;;;;;5090871;28;20408;-68
2023/08/06 00:44:40;;;;;;;4.47;3.60;;;15.00;99.90;;;;;;5072553;28;20825;-70
2023/08/06 00:47:08;;;;;;;3.90;3.50;;;15.00;99.90;;;;;;5074721;28;20424;-70
2023/08/06 00:49:36;;;;;;;4.53;4.05;;;15.00;99.90;;;;;;5075367;28;20411;-70
2023/08/06 00:52:05;;;;;;;4.88;4.38;;;15.00;99.90;;;;;;5078119;28;20430;-71
2023/08/06 00:54:32;;;;;;;4.40;3.90;;;15.00;99.90;;;;;;5081918;28;20417;-71
2023/08/06 00:56:59;;;;;;;4.70;4.07;;;15.00;99.90;;;;;;5081480;28;20926;-70
2023/08/06 00:59:26;;;;;;;6.13;4.20;;;15.00;99.90;;;;;;5079264;28;20915;-71
2023/08/06 01:01:53;;;;;;;4.68;3.83;;;15.00;99.90;;;;;;5083979;28;20441;-70
2023/08/06 01:04:20;;;;;;;5.20;4.00;;;15.00;99.90;;;;;;5090595;28;20410;-70
2023/08/06 01:06:50;;;;;;;3.90;3.50;;;15.00;99.90;;;;;;5082259;28;20429;-71
2023/08/06 01:09:30;;;;;;;4.40;3.95;;;15.00;99.90;;;;;;5079733;28;20430;-70
2023/08/06 01:12:10;;;;;;;5.43;3.88;;;15.10;99.90;;;;;;5082010;28;20444;-71
2023/08/06 01:14:46;;;;;;;4.05;3.65;;;15.10;99.90;;;;;;5081377;28;20422;-69
2023/08/06 01:17:14;;;;;;;4.47;3.60;;;15.10;99.90;;;;;;5080157;28;20430;-71
2023/08/06 01:19:41;;;;;;;4.40;3.70;;;15.00;99.90;;;;;;5080892;28;20434;-70
2023/08/06 01:22:09;;;;;;;4.60;3.60;;;15.00;99.90;;;;;;5077030;28;20939;-71
2023/08/06 01:24:36;;;;;;;5.25;4.00;;;15.10;99.90;;;;;;5083305;28;20424;-71
2023/08/06 01:27:07;;;;;;;3.63;3.25;;;15.10;99.90;;;;;;5090277;28;20433;-69
2023/08/06 01:29:40;;;;;;;4.45;4.05;;;15.00;99.90;;;;;;5073275;28;20809;-70
2023/08/06 01:32:11;;;;;;;4.60;4.20;;;15.10;99.90;;;;;;5086044;28;20680;-70
2023/08/06 01:34:41;;;;;;;4.80;3.90;;;15.10;99.90;;;;;;5085703;28;20429;-70
2023/08/06 01:37:09;;;;;;;3.97;3.58;;;15.10;99.90;;;;;;5083950;28;20416;-70
2023/08/06 01:39:36;;;;;;;5.20;4.00;;;15.10;99.90;;;;;;5087413;28;20429;-71
2023/08/06 01:42:03;;;;;;;4.15;3.75;;;15.10;99.90;;;;;;5082157;28;20787;-71
2023/08/06 01:44:30;;;;;;;4.90;3.60;;;15.10;99.90;;;;;;5082713;28;20959;-70
2023/08/06 01:46:57;;;;;;;3.78;3.47;;;15.10;99.90;;;;;;5083802;28;20953;-71
2023/08/06 01:49:23;;;;;;;4.30;3.90;;;15.00;99.90;;;;;;5082928;28;20425;-71
2023/08/06 01:51:50;;;;;;;4.45;3.90;;;15.00;99.90;;;;;;5083843;28;20491;-71
2023/08/06 01:54:18;;;;;;;4.30;3.90;;;15.00;99.90;;;;;;5081253;28;20919;-71
2023/08/06 01:56:45;;;;;;;4.40;4.00;;;15.10;99.90;;;;;;5078513;28;20404;-70
2023/08/06 01:59:11;;;;;;;4.82;4.25;;;15.00;99.90;;;;;;5082828;28;20484;-70
2023/08/06 02:01:38;;;;;;;4.60;3.90;;;15.10;99.90;;;;;;5085827;28;20633;-71
2023/08/06 02:04:05;;;;;;;5.10;4.10;;;15.00;99.90;;;;;;5081436;28;20437;-71
2023/08/06 02:06:32;;;;;;;4.28;3.88;;;15.00;99.90;;;;;;5087579;28;20418;-71
2023/08/06 02:08:58;;;;;;;4.90;4.20;;;15.10;99.90;;;;;;5080517;28;20426;-71
2023/08/06 02:11:26;;;;;;;4.30;3.90;;;15.00;99.90;;;;;;5081693;28;20416;-70
2023/08/06 02:13:53;;;;;;;4.65;3.70;;;15.00;99.90;;;;;;5076059;28;20445;-70
2023/08/06 02:16:20;;;;;;;4.80;3.88;;;15.00;99.90;;;;;;5086231;28;20936;-70
2023/08/06 02:18:47;;;;;;;4.45;4.05;;;15.00;99.90;;;;;;5081659;28;20609;-70
2023/08/06 02:21:13;;;;;;;4.50;3.70;;;14.90;99.90;;;;;;5085303;28;20462;-70
2023/08/06 02:23:40;;;;;;;5.03;3.83;;;14.90;99.90;;;;;;5080501;28;20424;-70
2023/08/06 02:26:07;;;;;;;4.10;3.70;;;14.90;99.90;;;;;;5079751;28;20817;-70
2023/08/06 02:28:35;;;;;;;4.15;3.75;;;15.00;99.90;;;;;;5085404;28;20855;-70
2023/08/06 02:31:02;;;;;;;4.30;3.90;;;14.90;99.90;;;;;;5086985;28;20796;-70
2023/08/06 02:33:29;;;;;;;4.80;3.70;;;14.90;99.90;;;;;;5079655;28;20498;-70
2023/08/06 02:36:01;;;;;;;4.10;3.70;;;15.00;99.90;;;;;;5081293;28;20433;-71
2023/08/06 02:38:27;;;;;;;4.97;3.70;;;15.00;99.90;;;;;;5074484;28;20477;-70
2023/08/06 02:40:54;;;;;;;4.22;3.50;;;15.00;99.90;;;;;;5079486;28;20437;-70
2023/08/06 02:43:21;;;;;;;4.20;3.20;;;15.00;99.90;;;;;;5083854;28;20434;-71
2023/08/06 02:45:49;;;;;;;4.75;3.55;;;15.00;99.90;;;;;;5083746;28;20442;-70
2023/08/06 02:48:18;;;;;;;4.70;3.40;;;15.00;99.90;;;;;;5085733;28;20429;-70
2023/08/06 02:50:44;;;;;;;4.57;4.00;;;15.00;99.90;;;;;;5081047;28;20523;-70
2023/08/06 02:53:11;;;;;;;4.45;3.67;;;15.10;99.90;;;;;;5083950;28;20708;-70
2023/08/06 02:55:38;;;;;;;3.85;3.38;;;15.00;99.90;;;;;;5077734;28;20431;-70
2023/08/06 02:58:04;;;;;;;4.40;4.00;;;15.10;99.90;;;;;;5086157;28;20421;-70
2023/08/06 03:00:31;;;;;;;4.10;3.40;;;15.00;99.90;;;;;;5082280;28;20809;-71
2023/08/06 03:02:59;;;;;;;4.28;3.70;;;15.00;99.90;;;;;;5081730;28;20414;-70
2023/08/06 03:05:26;;;;;;;5.63;3.70;;;15.00;99.90;;;;;;5078711;28;20432;-71
2023/08/06 03:07:52;;;;;;;4.32;3.70;;;15.00;99.90;;;;;;5086006;28;20425;-70
2023/08/06 03:10:19;;;;;;;3.92;3.53;;;15.10;99.90;;;;;;5084135;28;20414;-70
2023/08/06 03:12:46;;;;;;;3.60;3.30;;;15.10;99.90;;;;;;5076433;28;20903;-70
2023/08/06 03:15:13;;;;;;;3.83;3.17;;;15.00;99.90;;;;;;5082322;28;20421;-70
2023/08/06 03:17:40;;;;;;;3.90;3.20;;;15.10;99.90;;;;;;5084860;28;20481;-70
2023/08/06 03:20:09;;;;;;;4.00;3.30;;;15.10;99.90;;;;;;5082667;28;20471;-70
2023/08/06 03:22:35;;;;;;;3.85;3.22;;;15.10;99.90;;;;;;5076701;28;20433;-70
2023/08/06 03:25:03;;;;;;;4.57;3.33;;;15.10;99.90;;;;;;5085200;28;20437;-70
2023/08/06 03:27:29;;;;;;;3.88;3.20;;;15.10;99.90;;;;;;5083296;28;20430;-69
2023/08/06 03:29:56;;;;;;;3.60;3.30;;;15.10;99.90;;;;;;5075843;28;20919;-70
2023/08/06 03:32:23;;;;;;;5.32;3.30;;;15.10;99.90;;;;;;5085849;28;20426;-69
2023/08/06 03:34:50;;;;;;;3.78;3.47;;;15.10;99.90;;;;;;5087143;28;20938;-69
2023/08/06 03:37:18;;;;;;;4.93;3.50;;;15.10;99.90;;;;;;5087902;28;20413;-70
2023/08/06 03:39:44;;;;;;;4.32;3.92;;;15.00;99.90;;;;;;5087182;28;20432;-71
2023/08/06 03:42:11;;;;;;;4.07;3.67;;;15.00;99.90;;;;;;5077506;28;20437;-71
2023/08/06 03:44:39;;;;;;;4.25;3.60;;;15.00;99.90;;;;;;5077990;28;20426;-71
2023/08/06 03:47:06;;;;;;;5.03;4.03;;;15.00;99.90;;;;;;5076221;28;20434;-71
2023/08/06 03:49:33;;;;;;;4.20;3.80;;;14.90;99.90;;;;;;5071265;28;20434;-71
2023/08/06 03:51:59;;;;;;;4.90;4.00;;;14.90;99.90;;;;;;5079495;28;20426;-71
2023/08/06 03:54:27;;;;;;;4.10;3.80;;;14.90;99.90;;;;;;5079827;28;20923;-71
2023/08/06 03:56:54;;;;;;;4.50;4.10;;;14.90;99.90;;;;;;5083493;28;20436;-71
2023/08/06 03:59:21;;;;;;;4.93;4.50;;;14.90;99.90;;;;;;5077041;28;20429;-70
2023/08/06 04:01:47;;;;;;;6.80;4.60;;;14.80;99.90;;;;;;5072778;28;20434;-70
2023/08/06 04:04:14;;;;;;;6.35;4.30;;;14.80;99.90;;;;;;5078888;28;20429;-70
2023/08/06 04:06:41;;;;;;;4.75;3.80;;;14.80;99.90;;;;;;5086878;28;20428;-70
2023/08/06 04:09:07;;;;;;;5.73;3.80;;;14.80;99.90;;;;;;5078939;28;20433;-70
2023/08/06 04:11:36;;;;;;;6.80;4.20;;;14.80;99.90;;;;;;5083679;28;20662;-70
2023/08/06 04:14:02;;;;;;;4.78;3.30;;;14.80;99.90;;;;;;5078023;28;21042;-72
2023/08/06 04:16:29;;;;;;;3.95;3.10;;;14.70;99.90;;;;;;5082297;28;20448;-71
2023/08/06 04:18:56;;;;;;;4.50;3.40;;;14.70;99.90;;;;;;5087707;28;20406;-70
2023/08/06 04:21:23;;;;;;;5.00;3.20;;;14.70;99.90;;;;;;5079256;28;20796;-70
2023/08/06 04:23:49;;;;;;;4.15;3.40;;;14.70;99.90;;;;;;5085314;28;20431;-70
2023/08/06 04:26:16;;;;;;;5.35;3.40;;;14.70;99.90;;;;;;5085106;28;20445;-71
2023/08/06 04:28:44;;;;;;;4.75;3.40;;;14.70;99.90;;;;;;5079684;28;20434;-71
2023/08/06 04:31:11;;;;;;;4.60;3.45;;;14.70;99.90;;;;;;5081947;28;20436;-71
2023/08/06 04:33:38;;;;;;;5.40;3.55;;;14.60;99.90;;;;;;5079188;28;20434;-70
2023/08/06 04:36:05;;;;;;;4.43;3.53;;;14.70;99.90;;;;;;5090014;28;20432;-70
2023/08/06 04:38:31;;;;;;;6.07;4.30;;;14.70;99.90;;;;;;5084073;28;20420;-70
2023/08/06 04:40:59;;;;;;;4.70;3.80;;;14.70;99.90;;;;;;5091122;28;20401;-71
2023/08/06 04:43:26;;;;;;;6.10;4.20;;;14.70;99.90;;;;;;5083457;28;20450;-71
2023/08/06 04:45:56;;;;;;;5.18;3.65;;;14.80;99.90;;;;;;5078650;28;20418;-71
2023/08/06 04:48:23;;;;;;;5.07;4.13;;;14.70;99.90;;;;;;5087043;28;20427;-70
2023/08/06 04:50:51;;;;;;;4.40;3.60;;;14.80;99.90;;;;;;5071097;28;20404;-70
2023/08/06 04:53:18;;;;;;;6.10;4.10;;;14.80;99.90;;;;;;5085480;28;20432;-70
2023/08/06 04:55:45;;;;;;;4.97;4.30;;;14.80;99.90;;;;;;5084160;28;20868;-70
2023/08/06 04:58:12;;;;;;;6.68;3.70;;;14.90;99.90;;;;;;5085695;28;20412;-70
2023/08/06 05:00:39;;;;;;;4.67;3.67;;;14.80;99.90;;;;;;5086195;28;20975;-70
2023/08/06 05:03:07;;;;;;;4.32;3.50;;;14.90;99.90;;;;;;5087288;28;20804;-70
2023/08/06 05:05:34;;;;;;;5.25;3.72;;;14.90;99.90;;;;;;5089072;28;20413;-71
2023/08/06 05:08:01;;;;;;;5.28;4.18;;;14.90;99.90;;;;;;5078534;28;20434;-70
2023/08/06 05:10:28;;;;;;;4.00;3.53;;;14.90;99.90;;;;;;5078455;28;20763;-70
2023/08/06 05:12:55;;;;;;;4.82;3.60;;;14.90;99.90;;;;;;5087137;28;20440;-70
2023/08/06 05:15:22;;;;;;;6.73;3.90;;;14.90;99.90;;;;;;5088738;28;20495;-71
2023/08/06 05:17:49;;;;;;;4.37;3.50;;;14.90;99.90;;;;;;5079409;28;20670;-71
2023/08/06 05:20:18;;;;;;;5.80;4.50;;;14.90;99.90;;;;;;5079663;28;20430;-71
2023/08/06 05:22:45;;;;;;;3.80;3.50;;;14.90;99.90;;;;;;5084022;28;20425;-71
2023/08/06 05:25:14;;;;;;;5.43;3.92;;;15.00;99.90;;;;;;5077030;28;20420;-71
2023/08/06 05:27:41;;;;;;;5.30;4.20;;;15.00;99.90;;;;;;5075108;28;20501;-71
2023/08/06 05:30:10;;;;;;;4.78;3.80;;;15.10;99.90;;;;;;5074283;28;20427;-71
2023/08/06 05:32:36;;;;;;;4.93;3.60;;;15.20;99.90;;;;;;5083814;28;20430;-71
2023/08/06 05:35:04;;;;;;;4.43;3.58;;;15.20;99.90;;;;;;5088763;28;20753;-71
2023/08/06 05:37:32;;;;;;;5.40;3.55;;;15.20;99.90;;;;;;5089723;28;20402;-71
2023/08/06 05:39:58;;;;;;;4.78;4.10;;;15.20;99.90;;;;;;5082311;28;20445;-71
2023/08/06 05:42:25;;;;;;;4.22;3.40;;;15.20;99.90;;;;;;5087737;28;20437;-71
2023/08/06 05:44:52;;;;;;;4.13;3.72;;;15.30;99.90;;;;;;5077009;28;20506;-71
2023/08/06 05:47:19;;;;;;;4.00;3.60;;;15.30;99.90;;;;;;5079992;28;20504;-71
2023/08/06 05:49:46;;;;;;;5.78;3.75;;;15.30;99.90;;;;;;5088713;28;20509;-70
2023/08/06 05:52:13;;;;;;;5.10;4.10;;;15.30;99.90;;;;;;5074755;28;20426;-70
2023/08/06 05:54:41;;;;;;;4.65;3.78;;;15.30;99.90;;;;;;5079014;28;20435;-70
2023/08/06 05:57:08;;;;;;;4.22;3.83;;;15.30;99.90;;;;;;5087004;28;20518;-70
2023/08/06 05:59:34;;;;;;;4.05;3.60;;;15.30;99.90;;;;;;5082542;28;20413;-70
2023/08/06 06:02:01;;;;;;;4.28;3.50;;;15.30;99.90;;;;;;5083790;28;20428;-70
2023/08/06 06:04:29;;;;;;;4.63;3.83;;;15.30;99.90;;;;;;5088825;28;20410;-70
2023/08/06 06:06:56;;;;;;;4.32;3.92;;;15.30;99.90;;;;;;5088002;28;20479;-70
2023/08/06 06:09:23;;;;;;;5.68;4.22;;;15.30;99.90;;;;;;5087905;28;20793;-70
2023/08/06 06:11:51;;;;;;;4.70;4.15;;;15.30;99.90;;;;;;5085733;28;20425;-70
2023/08/06 06:14:18;;;;;;;3.92;3.45;;;15.40;99.90;;;;;;5089125;28;20955;-70
2023/08/06 06:16:45;;;;;;;5.10;4.60;;;15.30;99.90;;;;;;5075743;28;21955;-70
2023/08/06 06:19:11;;;;;;;5.40;3.80;;;15.40;99.90;;;;;;5084899;28;20400;-70
2023/08/06 06:21:38;;;;;;;5.07;3.88;;;15.50;99.90;;;;;;5077944;28;20435;-70
2023/08/06 06:24:05;;;;;;;4.32;3.92;;;15.50;99.90;;;;;;5080595;28;20411;-70
2023/08/06 06:26:32;;;;;;;4.53;4.13;;;15.60;99.90;;;;;;5069678;28;20419;-70
2023/08/06 06:29:00;;;;;;;4.18;3.78;;;15.60;99.90;;;;;;5088139;28;20434;-70
2023/08/06 06:31:27;;;;;;;3.70;3.40;;;15.70;99.90;;;;;;5078155;28;20848;-70
2023/08/06 06:33:54;;;;;;;5.35;3.20;;;15.70;99.90;;;;;;5077647;28;20416;-69
2023/08/06 06:36:21;;;;;;;3.10;2.90;;;15.60;99.90;;;;;;5078673;28;20553;-69
2023/08/06 06:38:47;;;;;;;3.88;3.47;;;15.60;99.90;;;;;;5078009;28;20433;-69
2023/08/06 06:41:14;;;;;;;3.20;2.30;;;15.60;99.90;;;;;;5082261;28;20442;-69
2023/08/06 06:43:41;;;;;;;2.37;2.10;;;15.60;99.90;;;;;;5097360;22;20402;-70
2023/08/06 06:46:09;;;;;;;1.90;1.60;;;15.60;99.90;;;;;;5077733;28;20417;-70
2023/08/06 06:48:36;;;;;;;2.20;1.90;;;15.50;99.90;;;;;;5089017;28;20437;-70
2023/08/06 06:51:03;;;;;;;1.90;1.70;;;15.40;99.90;;;;;;5089209;28;20414;-70
2023/08/06 06:53:30;;;;;;;2.70;1.50;;;15.30;99.90;;;;;;5089181;28;20467;-70
2023/08/06 06:56:01;;;;;;;1.60;1.40;;;15.20;99.90;;;;;;5085721;28;20726;-70
2023/08/06 06:58:28;;;;;;;1.88;1.40;;;15.20;99.90;;;;;;5084615;28;20421;-70
2023/08/06 07:00:55;;;;;;;2.70;1.60;;;15.10;99.90;;;;;;5086345;28;20429;-70
2023/08/06 07:03:23;;;;;;;2.00;1.60;;;15.00;99.90;;;;;;5089262;28;20517;-69
2023/08/06 07:05:51;;;;;;;2.40;1.90;;;15.00;99.90;;;;;;5088056;28;20426;-69
2023/08/06 07:08:18;;;;;;;2.00;1.80;;;15.00;99.90;;;;;;5086003;28;20440;-70
2023/08/06 07:10:44;;;;;;;3.10;1.90;;;15.10;99.90;;;;;;5088094;28;20418;-70
2023/08/06 07:13:11;;;;;;;2.80;1.80;;;15.00;99.90;;;;;;5087539;28;20444;-70
2023/08/06 07:15:38;;;;;;;1.73;1.60;;;15.00;99.90;;;;;;5084516;28;20433;-66
2023/08/06 07:18:04;;;;;;;2.50;2.10;;;15.00;99.90;;;;;;5088547;28;20509;-66
2023/08/06 07:20:34;;;;;;;2.40;2.00;;;15.00;99.90;;;;;;5088611;28;20432;-68
2023/08/06 07:23:01;;;;;;;2.58;1.80;;;15.00;99.90;;;;;;5089924;28;20463;-69
2023/08/06 07:25:28;;;;;;;2.10;1.90;;;15.00;99.90;;;;;;5086250;28;20444;-71
2023/08/06 07:27:56;;;;;;;3.00;2.10;;;14.90;99.90;;;;;;5089229;28;20413;-73
2023/08/06 07:30:23;;;;;;;2.10;1.70;;;14.90;99.90;;;;;;5087000;28;20999;-71
2023/08/06 07:32:50;;;;;;;2.67;1.70;;;14.90;99.90;;;;;;5097638;28;20410;-71
2023/08/06 07:35:16;;;;;;;2.50;1.80;;;15.00;99.90;;;;;;5088377;28;20430;-71
2023/08/06 07:37:44;;;;;;;2.80;2.10;;;15.00;99.90;;;;;;5078722;28;20428;-70
2023/08/06 07:40:12;;;;;;;2.13;1.92;;;15.00;99.90;;;;;;5077911;28;20433;-71
2023/08/06 07:42:38;;;;;;;2.38;2.17;;;15.10;99.90;;;;;;5094255;28;20413;-72
2023/08/06 07:45:06;;;;;;;1.90;1.80;;;15.10;99.90;;;;;;5086755;28;20430;-73
2023/08/06 07:47:33;;;;;;;2.20;2.00;;;15.10;99.90;;;;;;5089556;28;20884;-73
2023/08/06 07:50:00;;;;;;;2.22;1.70;;;15.20;99.90;;;;;;5087127;28;20429;-70
2023/08/06 07:52:27;;;;;;;2.00;1.70;;;15.20;99.90;;;;;;5087888;28;20834;-72
2023/08/06 07:54:55;;;;;;;3.80;1.90;;;15.30;99.90;;;;;;5087399;28;20429;-71
2023/08/06 07:57:21;;;;;;;2.80;2.00;;;15.30;99.90;;;;;;5088257;28;20406;-71
2023/08/06 07:59:48;;;;;;;2.03;1.83;;;15.50;99.90;;;;;;5086495;28;20911;-70
2023/08/06 08:02:15;;;;;;;2.20;1.60;;;15.60;99.90;;;;;;5087578;28;20425;-70
2023/08/06 08:04:42;;;;;;;1.80;1.70;;;15.70;99.90;;;;;;5097954;28;20422;-70
2023/08/06 08:07:10;;;;;;;1.70;1.60;;;15.80;99.90;;;;;;5092537;28;20413;-70
2023/08/06 08:09:37;;;;;;;2.28;1.42;;;15.90;99.90;;;;;;5079618;28;20433;-70
2023/08/06 08:12:05;;;;;;;2.15;1.80;;;15.90;99.90;;;;;;5081838;28;20429;-71
2023/08/06 08:14:35;;;;;;;2.57;1.90;;;16.00;99.90;;;;;;5088152;28;21011;-70
2023/08/06 08:17:02;;;;;;;2.22;1.67;;;16.00;99.90;;;;;;5090068;28;20768;-70
2023/08/06 08:19:29;;;;;;;2.00;1.70;;;16.00;99.90;;;;;;5088751;28;20490;-69
2023/08/06 08:21:56;;;;;;;1.77;1.60;;;16.00;99.90;;;;;;5084701;28;20417;-69
2023/08/06 08:24:24;;;;;;;2.05;1.60;;;16.00;99.90;;;;;;5091938;28;20418;-68
2023/08/06 08:26:51;;;;;;;2.20;2.00;;;16.10;99.90;;;;;;5090875;28;20429;-69
2023/08/06 08:29:20;;;;;;;2.15;1.95;;;16.20;99.90;;;;;;5091484;28;20430;-69
2023/08/06 08:31:49;;;;;;;2.00;1.90;;;16.30;99.90;;;;;;5090470;28;21150;-69
2023/08/06 08:34:15;;;;;;;2.10;1.80;;;16.50;99.90;;;;;;5091908;28;20900;-69
2023/08/06 08:36:42;;;;;;;2.60;1.48;;;16.60;99.90;;;;;;5088961;28;20784;-72
2023/08/06 08:39:09;;;;;;;1.50;1.40;;;16.70;99.90;;;;;;5091155;28;20413;-72
2023/08/06 08:41:38;;;;;;;1.70;1.40;;;16.90;99.90;;;;;;5090265;28;20800;-72
2023/08/06 08:44:08;;;;;;;1.50;1.10;;;16.90;99.90;;;;;;5089337;28;20500;-72
2023/08/06 08:46:38;;;;;;;1.70;1.20;;;17.00;99.90;;;;;;5088694;28;20445;-72
2023/08/06 08:49:06;;;;;;;1.75;1.40;;;17.00;99.90;;;;;;5091490;28;20430;-73
2023/08/06 08:51:34;;;;;;;2.40;1.60;;;17.00;99.90;;;;;;5091381;28;20505;-73
2023/08/06 08:54:03;;;;;;;1.30;1.20;;;16.90;99.90;;;;;;5091570;28;20575;-72
2023/08/06 08:56:30;;;;;;;1.30;1.20;;;16.90;99.90;;;;;;5083570;28;20510;-73
2023/08/06 08:58:57;;;;;;;2.00;1.60;;;16.80;99.90;;;;;;5088423;28;20909;-71
2023/08/06 09:01:24;;;;;;;1.55;1.25;;;16.70;99.90;;;;;;5083856;28;20431;-72
2023/08/06 09:03:54;;;;;;;2.00;1.70;;;16.70;99.90;;;;;;5089370;28;20429;-72
2023/08/06 09:06:22;;;;;;;2.08;1.50;;;16.80;99.90;;;;;;5090958;28;20495;-73
2023/08/06 09:08:55;;;;;;;3.70;1.60;;;16.90;99.90;;;;;;5091085;28;20414;-72
2023/08/06 09:11:22;;;;;;;1.90;1.35;;;16.90;99.90;;;;;;5085313;28;20429;-71
2023/08/06 09:13:49;;;;;;;1.70;1.45;;;16.80;99.90;;;;;;5085047;28;20457;-72
2023/08/06 09:16:16;;;;;;;1.60;1.33;;;16.80;99.90;;;;;;5087415;28;20426;-72
2023/08/06 09:18:43;;;;;;;1.90;1.70;;;16.80;99.90;;;;;;5090432;28;20884;-72
2023/08/06 09:21:16;;;;;;;1.80;1.40;;;16.70;99.90;;;;;;5090653;28;20407;-74
2023/08/06 09:23:43;;;;;;;1.60;1.25;;;16.80;99.90;;;;;;5080952;28;20969;-72
2023/08/06 09:26:13;;;;;;;1.60;1.50;;;16.80;99.90;;;;;;5090841;28;20424;-72
2023/08/06 09:28:43;;;;;;;2.10;1.90;;;16.80;99.90;;;;;;5094813;28;20488;-73
2023/08/06 09:31:10;;;;;;;1.70;1.60;;;16.80;99.90;;;;;;5083357;28;20505;-70
2023/08/06 09:33:38;;;;;;;2.20;2.00;;;16.80;99.90;;;;;;5085016;28;20679;-71
2023/08/06 09:36:12;;;;;;;2.67;2.47;;;16.80;99.90;;;;;;5087489;28;20475;-71
2023/08/06 09:38:41;;;;;;;3.80;3.50;;;16.80;99.90;;;;;;5088066;28;20429;-71
2023/08/06 09:41:08;;;;;;;3.60;3.30;;;16.80;99.90;;;;;;5088889;28;20448;-72
2023/08/06 09:43:41;;;;;;;3.90;3.60;;;16.60;99.90;;;;;;5086911;28;20483;-70
2023/08/06 09:46:13;;;;;;;3.75;3.40;;;16.50;99.90;;;;;;5091883;28;20426;-70
2023/08/06 09:48:41;;;;;;;3.92;3.63;;;16.30;99.90;;;;;;5084469;28;20428;-72
2023/08/06 09:51:10;;;;;;;4.22;3.92;;;16.20;99.90;;;;;;5085886;28;20418;-73
2023/08/06 09:53:41;;;;;;;4.60;4.20;;;16.20;99.90;;;;;;5086051;28;20429;-71
2023/08/06 09:56:09;;;;;;;5.30;4.90;;;16.20;99.90;;;;;;5088855;28;20442;-71
2023/08/06 09:58:37;;;;;;;5.53;5.10;;;16.20;99.90;;;;;;5079386;28;20423;-71
2023/08/06 10:01:05;;;;;;;6.30;5.80;;;16.20;99.90;;;;;;5088962;28;20871;-72
2023/08/06 10:03:34;;;;;;;6.70;6.20;;;16.20;99.90;;;;;;5089213;28;20429;-72
2023/08/06 10:06:06;;;;;;;6.15;5.65;;;16.10;99.90;;;;;;5084678;28;20436;-73
2023/08/06 10:08:32;;;;;;;5.50;5.00;;;16.10;99.90;;;;;;5090214;28;20508;-71
2023/08/06 10:11:03;;;;;;;5.30;4.72;;;16.10;99.90;;;;;;5088428;28;20437;-71
2023/08/06 10:13:31;;;;;;;3.80;2.85;;;16.00;99.90;;;;;;5089580;28;20422;-71
2023/08/06 10:15:58;;;;;;;2.60;2.40;;;15.80;99.90;;;;;;5094575;28;20402;-71
2023/08/06 10:18:25;;;;;;;1.73;1.58;;;15.60;99.90;;;;;;5089813;28;20416;-72
2023/08/06 10:20:53;;;;;;;4.28;1.80;;;15.40;99.90;;;;;;5085895;28;20784;-71
2023/08/06 10:23:20;;;;;;;1.40;1.00;;;15.20;99.90;;;;;;5089057;28;20426;-72
2023/08/06 10:25:55;;;;;;;1.40;0.90;;;15.00;99.90;;;;;;5088014;28;20461;-72
2023/08/06 10:28:23;;;;;;;1.60;1.15;;;14.70;99.90;;;;;;5088778;28;20460;-72
2023/08/06 10:30:51;;;;;;;1.80;1.10;;;14.60;99.90;;;;;;5086950;28;20434;-72
2023/08/06 10:33:20;;;;;;;1.80;1.08;;;14.50;99.90;;;;;;5088111;28;21943;-72
2023/08/06 10:35:49;;;;;;;1.67;0.90;;;14.40;99.90;;;;;;5086664;28;20463;-72
2023/08/06 10:38:17;;;;;;;1.60;1.00;;;14.40;99.90;;;;;;5087256;28;20539;-72
2023/08/06 10:40:49;;;;;;;1.17;0.80;;;14.40;99.90;;;;;;5086933;28;20457;-72
2023/08/06 10:43:28;;;;;;;1.73;1.10;;;14.40;99.90;;;;;;5086276;28;20432;-71
2023/08/06 10:45:55;;;;;;;1.55;1.23;;;14.30;99.90;;;;;;5080826;28;20943;-73
2023/08/06 10:48:34;;;;;;;1.70;1.50;;;14.30;99.90;;;;;;5089355;28;20412;-72
2023/08/06 10:51:02;;;;;;;2.30;1.60;;;14.10;99.90;;;;;;5085105;28;20517;-72
2023/08/06 10:53:29;;;;;;;2.60;1.75;;;14.10;99.90;;;;;;5091287;28;20987;-74
2023/08/06 10:55:56;;;;;;;2.33;2.10;;;14.00;99.90;;;;;;5088147;28;20421;-74
2023/08/06 10:58:22;;;;;;;2.70;2.30;;;13.90;99.90;;;;;;5086840;28;20442;-73
2023/08/06 11:00:50;;;;;;;3.38;2.50;;;13.90;99.90;;;;;;5083756;28;20401;-73
2023/08/06 11:03:18;;;;;;;2.35;2.15;;;13.80;99.90;;;;;;5093247;28;20408;-72
2023/08/06 11:05:49;;;;;;;2.40;2.20;;;13.80;99.90;;;;;;5088294;28;20566;-71
2023/08/06 11:08:24;;;;;;;4.13;2.85;;;13.70;99.90;;;;;;5087918;28;20668;-75
2023/08/06 11:10:51;;;;;;;3.35;2.70;;;13.70;99.90;;;;;;5085713;28;20429;-74
2023/08/06 11:13:18;;;;;;;3.00;2.70;;;13.70;99.90;;;;;;5087682;28;20429;-74
2023/08/06 11:15:45;;;;;;;4.13;3.17;;;13.70;99.90;;;;;;5088433;28;20470;-73
2023/08/06 11:18:13;;;;;;;3.60;3.20;;;13.70;99.90;;;;;;5088885;28;20410;-72
2023/08/06 11:20:41;;;;;;;3.50;2.70;;;13.70;99.90;;;;;;5086306;28;20429;-73
2023/08/06 11:23:11;;;;;;;3.97;2.95;;;13.70;99.90;;;;;;5088333;28;20440;-75
2023/08/06 11:25:38;;;;;;;5.07;3.30;;;13.70;99.90;;;;;;5085406;28;20410;-72
2023/08/06 11:28:05;;;;;;;3.30;3.00;;;13.70;99.90;;;;;;5087493;28;20438;-72
2023/08/06 11:30:31;;;;;;;3.60;3.20;;;13.70;99.90;;;;;;5086676;28;20422;-72
2023/08/06 11:32:58;;;;;;;3.83;2.97;;;13.70;99.90;;;;;;5080614;28;20402;-72
2023/08/06 11:35:26;;;;;;;5.03;3.45;;;13.80;99.90;;;;;;5088121;28;20910;-72
2023/08/06 11:37:53;;;;;;;5.40;3.45;;;13.80;99.90;;;;;;5092487;28;20429;-73
2023/08/06 11:40:21;;;;;;;5.82;3.45;;;13.90;99.90;;;;;;5088091;28;20413;-72
2023/08/06 11:42:48;;;;;;;3.50;2.90;;;13.90;99.90;;;;;;5087064;28;20422;-72
2023/08/06 11:45:15;;;;;;;4.70;2.85;;;14.00;99.90;;;;;;5088255;28;20421;-72
2023/08/06 11:47:42;;;;;;;3.83;2.83;;;14.00;99.90;;;;;;5086930;28;20923;-72
2023/08/06 11:50:09;;;;;;;5.53;2.88;;;14.10;99.90;;;;;;5087852;28;20426;-72
2023/08/06 11:52:42;;;;;;;3.65;2.40;;;14.10;99.90;;;;;;5087189;28;20430;-74
2023/08/06 11:55:10;;;;;;;6.47;3.08;;;14.10;99.90;;;;;;5088274;28;20427;-73
2023/08/06 11:57:39;;;;;;;3.88;2.40;;;14.20;99.90;;;;;;5087349;28;20482;-71
2023/08/06 12:00:08;;;;;;;3.53;2.00;;;14.20;99.90;;;;;;5087354;28;20426;-71
2023/08/06 12:02:37;;;;;;;3.42;2.30;;;14.20;99.90;;;;;;5088653;28;20437;-71
2023/08/06 12:05:06;;;;;;;2.70;1.75;;;14.20;99.90;;;;;;5088761;28;20410;-72
2023/08/06 12:07:34;;;;;;;3.20;1.92;;;14.30;99.90;;;;;;5087793;28;20920;-73
2023/08/06 12:10:02;;;;;;;3.67;2.00;;;14.40;99.90;;;;;;5087922;28;20514;-73
2023/08/06 12:12:29;;;;;;;3.42;1.60;;;14.40;99.90;;;;;;5086577;28;20504;-72
2023/08/06 12:14:56;;;;;;;2.90;1.60;;;14.50;99.90;;;;;;5087319;28;20433;-72
2023/08/06 12:17:23;;;;;;;2.08;1.40;;;14.60;99.90;;;;;;5088581;28;20475;-73
2023/08/06 12:19:50;;;;;;;3.00;1.42;;;14.80;99.90;;;;;;5088133;28;20789;-72
2023/08/06 12:22:17;;;;;;;2.42;1.30;;;14.90;99.90;;;;;;5087316;28;20426;-72
2023/08/06 12:24:45;;;;;;;1.60;1.23;;;14.90;99.90;;;;;;5078023;28;20459;-73
2023/08/06 12:27:14;;;;;;;2.03;1.17;;;15.00;99.90;;;;;;5087446;28;20421;-72
2023/08/06 12:29:42;;;;;;;3.50;1.30;;;15.10;99.90;;;;;;5088479;28;20424;-73
2023/08/06 12:32:09;;;;;;;3.10;1.80;;;15.20;99.90;;;;;;5089082;28;20982;-73
2023/08/06 12:34:36;;;;;;;2.67;1.40;;;15.20;99.90;;;;;;5088043;28;20428;-72
2023/08/06 12:37:03;;;;;;;2.40;1.27;;;15.20;99.90;;;;;;5088487;28;20421;-72
2023/08/06 12:39:31;;;;;;;2.13;1.38;;;15.20;99.90;;;;;;5092057;28;20417;-72
2023/08/06 12:41:58;;;;;;;2.70;1.63;;;15.20;99.90;;;;;;5090875;28;20402;-72
2023/08/06 12:44:26;;;;;;;2.90;1.60;;;15.20;99.90;;;;;;5110810;22;21232;-71
2023/08/06 12:46:53;;;;;;;2.63;1.80;;;15.10;99.90;;;;;;5106475;28;20428;-71
2023/08/06 12:49:20;;;;;;;5.00;2.08;;;14.90;99.90;;;;;;5108792;28;20419;-74
2023/08/06 12:51:47;;;;;;;4.75;2.30;;;14.80;99.90;;;;;;5102796;28;20451;-73